Terminal Aerodrome Forecast
Issued by NWS Sioux Falls, SD

Home | Current Version | Previous Version | Text Only | Print | Product List | Glossary On
Versions: 1 2 3 4 5 6 7 8 9 10 11 12 13 14 15 16 17 18 19 20 21 22 23 24 25 26 27 28
187
FTUS43 KFSD 192320
TAFSUX
TAF
KSUX 192320Z 2000/2024 18014KT P6SM OVC250
     FM200200 17012KT P6SM VCTS SCT050CB OVC250
     FM200600 18012KT P6SM BKN120
     FM201500 04005KT P6SM SCT035 BKN250=

USA.gov is the U.S. government's official web portal to all federal, state and local government web resources and services.